createdAt,value
2024-02-10T00:02:12.076Z,97642.47
2024-02-10T00:04:41.810Z,97646.63
2024-02-10T00:07:09.200Z,97637.38
2024-02-10T00:09:38.245Z,97636.44
2024-02-10T00:12:06.034Z,97630.47
2024-02-10T00:14:35.483Z,97630.41
2024-02-10T00:17:06.395Z,97627.56
2024-02-10T00:19:33.073Z,97630.28
2024-02-10T00:21:59.545Z,97634.66
2024-02-10T00:24:27.804Z,97625.44
2024-02-10T00:26:54.802Z,97626.25
2024-02-10T00:29:23.543Z,97624.59
2024-02-10T00:31:50.246Z,97626.00
2024-02-10T00:34:17.107Z,97623.97
2024-02-10T00:36:45.838Z,97623.03
2024-02-10T00:39:13.962Z,97628.13
2024-02-10T00:41:41.570Z,97624.94
2024-02-10T00:44:08.332Z,97622.66
2024-02-10T00:46:36.173Z,97621.44
2024-02-10T00:49:03.316Z,97619.59
2024-02-10T00:51:31.273Z,97622.53
2024-02-10T00:53:57.933Z,97625.16
2024-02-10T00:56:25.857Z,97628.00
2024-02-10T00:58:52.759Z,97623.63
2024-02-10T01:01:23.011Z,97626.22
2024-02-10T01:03:50.453Z,97622.91
2024-02-10T01:06:21.959Z,97621.00
2024-02-10T01:08:52.174Z,97624.31
2024-02-10T01:11:24.925Z,97630.47
2024-02-10T01:13:52.262Z,97625.31
2024-02-10T01:16:20.076Z,97623.66
2024-02-10T01:18:50.317Z,97623.22
2024-02-10T01:21:19.278Z,97617.69
2024-02-10T01:23:47.918Z,97622.13
2024-02-10T01:26:14.991Z,97607.31
2024-02-10T01:28:46.310Z,97607.72
2024-02-10T01:31:14.284Z,97602.19
2024-02-10T01:33:42.800Z,97594.69
2024-02-10T01:36:12.908Z,97595.22
2024-02-10T01:38:44.435Z,97594.97
2024-02-10T01:41:12.825Z,97595.69
2024-02-10T01:43:41.051Z,97589.19
2024-02-10T01:46:11.212Z,97592.75
2024-02-10T01:48:39.098Z,97595.63
2024-02-10T01:51:06.557Z,97590.97
2024-02-10T01:53:33.633Z,97589.06
2024-02-10T01:56:02.046Z,97581.47
2024-02-10T01:58:29.000Z,97583.41
2024-02-10T02:00:55.979Z,97580.00
2024-02-10T02:03:24.385Z,97577.38
2024-02-10T02:05:51.327Z,97574.06
2024-02-10T02:08:21.496Z,97564.47
2024-02-10T02:10:48.825Z,97573.00
2024-02-10T02:13:22.924Z,97571.88
2024-02-10T02:15:50.353Z,97569.81
2024-02-10T02:18:17.323Z,97574.91
2024-02-10T02:20:48.353Z,97572.84
2024-02-10T02:23:19.622Z,97583.13
2024-02-10T02:25:49.531Z,97575.03
2024-02-10T02:28:20.394Z,97575.31
2024-02-10T02:30:47.478Z,97576.03
2024-02-10T02:33:15.426Z,97579.28
2024-02-10T02:35:44.610Z,97571.47
2024-02-10T02:38:14.817Z,97570.50
2024-02-10T02:40:42.853Z,97569.34
2024-02-10T02:43:14.070Z,97569.22
2024-02-10T02:45:43.984Z,97566.13
2024-02-10T02:48:11.803Z,97564.34
2024-02-10T02:50:41.224Z,97564.34
2024-02-10T02:53:07.974Z,97566.00
2024-02-10T02:55:36.516Z,97560.50
2024-02-10T02:58:10.996Z,97562.16
2024-02-10T03:00:39.641Z,97543.72
2024-02-10T03:03:28.888Z,97549.53
2024-02-10T03:06:17.721Z,97546.09
2024-02-10T03:09:04.398Z,97533.81
2024-02-10T03:11:51.146Z,97532.72
2024-02-10T03:14:38.265Z,97529.53
2024-02-10T03:17:24.916Z,97530.50
2024-02-10T03:19:51.556Z,97529.22
2024-02-10T03:22:19.118Z,97524.97
2024-02-10T03:24:49.565Z,97518.25
2024-02-10T03:27:19.298Z,97520.44
2024-02-10T03:29:46.626Z,97514.28
2024-02-10T03:32:16.265Z,97515.09
2024-02-10T03:34:43.512Z,97509.66
2024-02-10T03:37:11.360Z,97520.03
2024-02-10T03:39:38.501Z,97515.47
2024-02-10T03:42:06.298Z,97509.41
2024-02-10T03:44:35.923Z,97498.06
2024-02-10T03:47:03.037Z,97501.38
2024-02-10T03:49:30.533Z,97495.03
2024-02-10T03:51:58.672Z,97496.81
2024-02-10T03:54:26.276Z,97496.28
2024-02-10T03:56:52.877Z,97498.22
2024-02-10T03:59:19.608Z,97493.13
2024-02-10T04:01:47.250Z,97483.22
2024-02-10T04:04:15.211Z,97491.03
2024-02-10T04:06:41.921Z,97480.84
2024-02-10T04:09:08.905Z,97482.13
2024-02-10T04:11:35.640Z,97481.56
2024-02-10T04:14:02.409Z,97486.41
2024-02-10T04:16:29.829Z,97490.53
2024-02-10T04:19:00.596Z,97495.03
2024-02-10T04:21:27.849Z,97493.13
2024-02-10T04:23:54.399Z,97493.31
2024-02-10T04:26:21.021Z,97490.44
2024-02-10T04:28:48.002Z,97484.97
2024-02-10T04:31:14.835Z,97495.41
2024-02-10T04:33:48.837Z,97495.16
2024-02-10T04:36:16.056Z,97493.94
2024-02-10T04:38:42.715Z,97497.88
2024-02-10T04:41:09.390Z,97490.75
2024-02-10T04:43:37.505Z,97490.63
2024-02-10T04:46:04.507Z,97484.72
2024-02-10T04:48:31.531Z,97491.72
2024-02-10T04:50:58.295Z,97500.50
2024-02-10T04:53:27.878Z,97499.22
2024-02-10T04:55:54.523Z,97493.44
2024-02-10T04:58:23.239Z,97495.63
2024-02-10T05:00:50.211Z,97497.06
2024-02-10T05:03:16.891Z,97507.25
2024-02-10T05:05:43.771Z,97511.75
2024-02-10T05:08:14.442Z,97511.06
2024-02-10T05:10:42.392Z,97508.69
2024-02-10T05:13:09.078Z,97509.06
2024-02-10T05:15:36.026Z,97515.25
2024-02-10T05:18:06.931Z,97514.19
2024-02-10T05:20:34.086Z,97515.03
2024-02-10T05:23:02.811Z,97521.69
2024-02-10T05:25:37.407Z,97518.13
2024-02-10T05:28:05.101Z,97520.16
2024-02-10T05:30:31.718Z,97517.22
2024-02-10T05:33:01.561Z,97509.94
2024-02-10T05:35:30.844Z,97499.06
2024-02-10T05:37:59.902Z,97496.44
2024-02-10T05:40:28.201Z,97495.50
2024-02-10T05:43:00.115Z,97495.41
2024-02-10T05:45:26.935Z,97490.13
2024-02-10T05:47:54.031Z,97485.53
2024-02-10T05:50:24.619Z,97486.72
2024-02-10T05:52:59.638Z,97486.25
2024-02-10T05:55:28.726Z,97496.44
2024-02-10T05:58:07.730Z,97501.09
2024-02-10T06:00:36.902Z,97493.03
2024-02-10T06:03:05.820Z,97493.50
2024-02-10T06:05:33.591Z,97500.03
2024-02-10T06:08:02.534Z,97500.38
2024-02-10T06:10:29.690Z,97498.41
2024-02-10T06:12:56.603Z,97504.44
2024-02-10T06:15:25.462Z,97499.59
2024-02-10T06:17:55.794Z,97503.03
2024-02-10T06:20:26.579Z,97500.06
2024-02-10T06:22:55.479Z,97503.38
2024-02-10T06:25:28.050Z,97502.44
2024-02-10T06:27:57.269Z,97498.88
2024-02-10T06:30:27.807Z,97504.22
2024-02-10T06:32:57.246Z,97509.53
2024-02-10T06:35:24.759Z,97505.88
2024-02-10T06:37:51.668Z,97503.25
2024-02-10T06:40:19.419Z,97500.22
2024-02-10T06:42:53.842Z,97512.84
2024-02-10T06:45:27.922Z,97512.63
2024-02-10T06:47:54.878Z,97518.66
2024-02-10T06:50:30.824Z,97522.41
2024-02-10T06:53:02.001Z,97523.88
2024-02-10T06:55:30.095Z,97521.03
2024-02-10T06:57:57.477Z,97518.44
2024-02-10T07:00:24.592Z,97526.34
2024-02-10T07:02:52.922Z,97519.59
2024-02-10T07:05:21.326Z,97528.00
2024-02-10T07:07:50.778Z,97521.50
2024-02-10T07:10:22.686Z,97526.47
2024-02-10T07:12:51.169Z,97532.03
2024-02-10T07:15:23.029Z,97535.34
2024-02-10T07:17:51.912Z,97534.50
2024-02-10T07:20:26.803Z,97540.06
2024-02-10T07:22:59.439Z,97529.16
2024-02-10T07:25:31.060Z,97528.22
2024-02-10T07:28:04.817Z,97527.41
2024-02-10T07:30:33.559Z,97519.50
2024-02-10T07:33:11.555Z,97528.84
2024-02-10T07:35:40.256Z,97525.41
2024-02-10T07:38:07.150Z,97522.81
2024-02-10T07:40:35.897Z,97524.69
2024-02-10T07:43:03.990Z,97533.31
2024-02-10T07:45:31.586Z,97522.69
2024-02-10T07:48:02.063Z,97517.47
2024-02-10T07:50:28.955Z,97518.75
2024-02-10T07:52:55.647Z,97519.22
2024-02-10T07:55:25.099Z,97519.81
2024-02-10T07:57:52.440Z,97516.41
2024-02-10T08:00:20.192Z,97527.28
2024-02-10T08:02:46.893Z,97516.63
2024-02-10T08:05:16.763Z,97524.28
2024-02-10T08:07:43.969Z,97522.97
2024-02-10T08:10:10.972Z,97525.47
2024-02-10T08:12:37.571Z,97519.06
2024-02-10T08:15:04.999Z,97520.50
2024-02-10T08:17:32.578Z,97523.81
2024-02-10T08:20:00.982Z,97519.53
2024-02-10T08:22:32.379Z,97514.66
2024-02-10T08:25:00.093Z,97512.16
2024-02-10T08:27:30.019Z,97511.94
2024-02-10T08:29:58.929Z,97524.47
2024-02-10T08:32:27.855Z,97523.50
2024-02-10T08:34:55.134Z,97515.81
2024-02-10T08:37:22.311Z,97521.13
2024-02-10T08:39:49.127Z,97514.84
2024-02-10T08:42:17.036Z,97514.84
2024-02-10T08:44:47.718Z,97505.22
2024-02-10T08:47:14.885Z,97512.41
2024-02-10T08:49:42.538Z,97513.34
2024-02-10T08:52:17.716Z,97512.47
2024-02-10T08:54:45.645Z,97512.00
2024-02-10T08:57:12.778Z,97507.75
2024-02-10T08:59:43.291Z,97512.66
2024-02-10T09:02:11.142Z,97495.75
2024-02-10T09:04:41.731Z,97488.75
2024-02-10T09:07:09.377Z,97477.25
2024-02-10T09:09:37.486Z,97482.94
2024-02-10T09:12:04.470Z,97483.66
2024-02-10T09:14:34.087Z,97487.31
2024-02-10T09:17:00.740Z,97478.09
2024-02-10T09:19:27.643Z,97481.97
2024-02-10T09:21:59.436Z,97482.97
2024-02-10T09:24:27.572Z,97488.78
2024-02-10T09:26:55.809Z,97486.00
2024-02-10T09:29:22.493Z,97479.59
2024-02-10T09:31:50.648Z,97473.88
2024-02-10T09:34:20.106Z,97477.69
2024-02-10T09:36:48.231Z,97474.56
2024-02-10T09:39:14.778Z,97484.91
2024-02-10T09:41:42.347Z,97483.69
2024-02-10T09:44:13.607Z,97483.94
2024-02-10T09:46:40.819Z,97482.09
2024-02-10T09:49:09.742Z,97485.16
2024-02-10T09:51:44.139Z,97495.63
2024-02-10T09:54:15.388Z,97504.72
2024-02-10T09:56:45.435Z,97507.47
2024-02-10T09:59:19.651Z,97514.91
2024-02-10T10:01:47.289Z,97515.34
2024-02-10T10:04:14.059Z,97516.75
2024-02-10T10:06:44.407Z,97525.72
2024-02-10T10:09:14.085Z,97520.91
2024-02-10T10:11:45.409Z,97522.72
2024-02-10T10:14:15.100Z,97520.44
2024-02-10T10:16:42.521Z,97519.47
2024-02-10T10:19:09.762Z,97518.22
2024-02-10T10:21:38.102Z,97516.59
2024-02-10T10:24:05.440Z,97509.59
2024-02-10T10:26:33.173Z,97511.56
2024-02-10T10:29:00.466Z,97528.56
2024-02-10T10:31:29.377Z,97528.56
2024-02-10T10:33:56.484Z,97528.75
2024-02-10T10:36:23.870Z,97537.13
2024-02-10T10:38:52.822Z,97539.75
2024-02-10T10:41:24.151Z,97534.13
2024-02-10T10:43:52.337Z,97530.72
2024-02-10T10:46:21.047Z,97531.41
2024-02-10T10:48:50.350Z,97527.00
2024-02-10T10:51:22.775Z,97525.91
2024-02-10T10:53:50.809Z,97513.53
2024-02-10T10:56:23.735Z,97520.00
2024-02-10T10:58:58.783Z,97505.41
2024-02-10T11:01:27.505Z,97503.22
2024-02-10T11:03:56.345Z,97497.28
2024-02-10T11:06:24.028Z,97485.44
2024-02-10T11:08:54.882Z,97480.19
2024-02-10T11:11:22.662Z,97474.94
2024-02-10T11:13:49.431Z,97473.16
2024-02-10T11:16:17.068Z,97467.59
2024-02-10T11:19:05.953Z,97463.03
2024-02-10T11:21:34.681Z,97458.34
2024-02-10T11:24:07.067Z,97456.28
2024-02-10T11:26:39.684Z,97449.41
2024-02-10T11:29:07.929Z,97439.84
2024-02-10T11:31:38.572Z,97445.69
2024-02-10T11:34:12.736Z,97437.16
2024-02-10T11:36:39.939Z,97423.53
2024-02-10T11:39:10.805Z,97412.72
2024-02-10T11:41:40.921Z,97418.84
2024-02-10T11:44:09.330Z,97409.88
2024-02-10T11:46:37.035Z,97415.88
2024-02-10T11:49:04.351Z,97412.47
2024-02-10T11:51:32.739Z,97401.00
2024-02-10T11:54:01.781Z,97402.09
2024-02-10T11:56:30.057Z,97399.22
2024-02-10T11:58:56.851Z,97390.56
2024-02-10T12:01:24.927Z,97381.25
2024-02-10T12:03:53.165Z,97383.44
2024-02-10T12:06:23.550Z,97375.06
2024-02-10T12:08:51.322Z,97372.22
2024-02-10T12:11:18.258Z,97372.97
2024-02-10T12:13:47.337Z,97364.75
2024-02-10T12:16:16.936Z,97353.44
2024-02-10T12:18:48.440Z,97358.06
2024-02-10T12:21:25.565Z,97350.22
2024-02-10T12:23:53.823Z,97344.63
2024-02-10T12:26:20.923Z,97342.94
2024-02-10T12:28:49.314Z,97333.03
2024-02-10T12:31:22.307Z,97324.09
2024-02-10T12:33:51.336Z,97326.06
2024-02-10T12:36:21.382Z,97319.00
2024-02-10T12:38:48.655Z,97320.09
2024-02-10T12:41:18.635Z,97320.78
2024-02-10T12:43:45.601Z,97326.69
2024-02-10T12:46:13.241Z,97326.97
2024-02-10T12:48:40.307Z,97322.03
2024-02-10T12:51:08.229Z,97320.47
2024-02-10T12:53:35.823Z,97332.19
2024-02-10T12:56:04.852Z,97331.69
2024-02-10T12:58:31.976Z,97335.53
2024-02-10T13:00:59.044Z,97339.59
2024-02-10T13:03:26.001Z,97332.38
2024-02-10T13:05:53.036Z,97326.19
2024-02-10T13:08:20.092Z,97329.03
2024-02-10T13:10:47.820Z,97330.19
2024-02-10T13:13:15.136Z,97339.38
2024-02-10T13:16:32.970Z,97331.53
2024-02-10T13:19:00.211Z,97339.53
2024-02-10T13:21:27.918Z,97339.53
2024-02-10T13:23:54.782Z,97340.75
2024-02-10T13:26:21.660Z,97328.38
2024-02-10T13:28:52.418Z,97332.41
2024-02-10T13:31:22.657Z,97345.59
2024-02-10T13:33:49.578Z,97335.88
2024-02-10T13:36:19.896Z,97335.81
2024-02-10T13:39:05.373Z,97328.13
2024-02-10T13:41:51.531Z,97327.81
2024-02-10T13:44:37.142Z,97329.03
2024-02-10T13:47:22.578Z,97319.84
2024-02-10T13:50:08.165Z,97331.28
2024-02-10T13:52:53.677Z,97325.41
2024-02-10T13:55:39.373Z,97316.38
2024-02-10T13:58:12.172Z,97309.38
2024-02-10T14:00:41.915Z,97310.66
2024-02-10T14:03:13.463Z,97310.09
2024-02-10T14:05:51.145Z,97314.09
2024-02-10T14:08:38.650Z,97301.22
2024-02-10T14:11:12.074Z,97294.56
2024-02-10T14:13:44.602Z,97292.75
2024-02-10T14:16:17.171Z,97296.06
2024-02-10T14:18:45.276Z,97295.84
2024-02-10T14:21:25.686Z,97283.50
2024-02-10T14:23:54.799Z,97288.34
2024-02-10T14:26:39.180Z,97284.72
2024-02-10T14:29:08.249Z,97283.59
2024-02-10T14:31:45.636Z,97278.56
2024-02-10T14:34:17.002Z,97277.59
2024-02-10T14:36:56.897Z,97260.63
2024-02-10T14:39:24.773Z,97253.34
2024-02-10T14:41:53.054Z,97254.78
2024-02-10T14:44:22.849Z,97248.53
2024-02-10T14:46:50.718Z,97241.63
2024-02-10T14:49:18.661Z,97246.56
2024-02-10T14:51:45.524Z,97241.09
2024-02-10T14:54:12.744Z,97238.25
2024-02-10T14:56:40.493Z,97228.16
2024-02-10T14:59:12.540Z,97243.50
2024-02-10T15:01:41.388Z,97243.72
2024-02-10T15:04:08.706Z,97244.63
2024-02-10T15:06:36.768Z,97243.28
2024-02-10T15:09:03.862Z,97247.41
2024-02-10T15:11:30.420Z,97243.28
2024-02-10T15:13:57.728Z,97252.00
2024-02-10T15:16:26.378Z,97245.59
2024-02-10T15:18:53.475Z,97253.06
2024-02-10T15:21:21.613Z,97237.56
2024-02-10T15:23:49.254Z,97240.41
2024-02-10T15:26:18.083Z,97229.81
2024-02-10T15:28:46.689Z,97225.84
2024-02-10T15:31:20.027Z,97224.84
2024-02-10T15:33:48.410Z,97231.16
2024-02-10T15:36:28.216Z,97229.56
2024-02-10T15:39:02.424Z,97235.75
2024-02-10T15:41:29.820Z,97232.19
2024-02-10T15:43:56.909Z,97233.75
2024-02-10T15:46:24.057Z,97233.81
2024-02-10T15:48:55.540Z,97245.72
2024-02-10T15:51:23.085Z,97234.72
2024-02-10T15:53:50.004Z,97237.44
2024-02-10T15:56:16.723Z,97241.22
2024-02-10T15:58:44.649Z,97239.28
2024-02-10T16:01:19.080Z,97245.47
2024-02-10T16:03:45.824Z,97239.13
2024-02-10T16:06:12.759Z,97231.47
2024-02-10T16:08:48.225Z,97227.13
2024-02-10T16:11:16.672Z,97216.56
2024-02-10T16:13:45.613Z,97214.09
2024-02-10T16:16:22.380Z,97217.41
2024-02-10T16:18:50.083Z,97213.50
2024-02-10T16:21:29.037Z,97214.09
2024-02-10T16:23:58.037Z,97223.00
2024-02-10T16:26:25.280Z,97222.22
2024-02-10T16:28:53.038Z,97219.69
2024-02-10T16:31:21.292Z,97222.16
2024-02-10T16:33:50.144Z,97230.97
2024-02-10T16:36:17.840Z,97228.84
2024-02-10T16:38:45.181Z,97235.97
2024-02-10T16:41:19.488Z,97233.31
2024-02-10T16:43:46.244Z,97234.97
2024-02-10T16:46:18.321Z,97243.19
2024-02-10T16:48:50.841Z,97239.22
2024-02-10T16:51:33.284Z,97244.44
2024-02-10T16:54:06.027Z,97238.25
2024-02-10T16:56:36.692Z,97249.66
2024-02-10T16:59:08.544Z,97249.50
2024-02-10T17:01:35.665Z,97252.31
2024-02-10T17:04:05.609Z,97253.84
2024-02-10T17:06:36.368Z,97255.97
2024-02-10T17:09:04.739Z,97262.31
2024-02-10T17:11:31.567Z,97264.81
2024-02-10T17:13:58.466Z,97260.53
2024-02-10T17:16:25.269Z,97259.28
2024-02-10T17:18:52.147Z,97269.59
2024-02-10T17:21:19.270Z,97272.34
2024-02-10T17:23:47.037Z,97272.47
2024-02-10T17:26:14.619Z,97263.03
2024-02-10T17:28:42.210Z,97261.38
2024-02-10T17:31:12.827Z,97259.66
2024-02-10T17:33:42.212Z,97259.88
2024-02-10T17:36:13.578Z,97272.03
2024-02-10T17:38:40.558Z,97267.34
2024-02-10T17:41:11.877Z,97280.84
2024-02-10T17:43:38.878Z,97276.56
2024-02-10T17:46:05.700Z,97284.81
2024-02-10T17:48:32.969Z,97303.63
2024-02-10T17:51:00.292Z,97302.53
2024-02-10T17:53:29.355Z,97314.34
2024-02-10T17:55:57.502Z,97318.19
2024-02-10T17:58:30.243Z,97325.19
2024-02-10T18:00:57.539Z,97322.31
2024-02-10T18:03:25.700Z,97322.03
2024-02-10T18:05:57.007Z,97335.78
2024-02-10T18:08:24.740Z,97342.50
2024-02-10T18:10:51.608Z,97337.16
2024-02-10T18:13:18.601Z,97350.34
2024-02-10T18:15:45.459Z,97356.94
2024-02-10T18:18:13.008Z,97347.59
2024-02-10T18:20:39.807Z,97342.50
2024-02-10T18:23:08.052Z,97335.50
2024-02-10T18:25:36.422Z,97329.59
2024-02-10T18:28:05.121Z,97329.47
2024-02-10T18:30:32.165Z,97335.50
2024-02-10T18:32:59.618Z,97332.88
2024-02-10T18:35:26.223Z,97333.72
2024-02-10T18:37:58.706Z,97341.00
2024-02-10T18:40:27.887Z,97337.16
2024-02-10T18:42:55.478Z,97338.09
2024-02-10T18:45:24.992Z,97335.50
2024-02-10T18:47:52.555Z,97333.28
2024-02-10T18:50:20.256Z,97333.97
2024-02-10T18:52:48.606Z,97329.19
2024-02-10T18:57:45.995Z,97349.38
2024-02-10T19:00:20.944Z,97346.75
2024-02-10T19:02:52.899Z,97339.06
2024-02-10T19:05:19.560Z,97345.09
2024-02-10T19:07:46.978Z,97352.63
2024-02-10T19:10:16.013Z,97351.41
2024-02-10T19:12:49.417Z,97360.44
2024-02-10T19:15:18.122Z,97352.63
2024-02-10T19:17:52.006Z,97350.44
2024-02-10T19:20:20.163Z,97351.91
2024-02-10T19:22:49.718Z,97347.28
2024-02-10T19:25:21.491Z,97350.84
2024-02-10T19:27:52.106Z,97355.91
2024-02-10T19:30:20.599Z,97361.41
2024-02-10T19:32:47.977Z,97357.00
2024-02-10T19:35:17.680Z,97356.19
2024-02-10T19:37:47.524Z,97355.31
2024-02-10T19:40:16.251Z,97354.91
2024-02-10T19:42:46.369Z,97355.88
2024-02-10T19:45:15.876Z,97360.25
2024-02-10T19:47:46.759Z,97360.81
2024-02-10T19:50:13.943Z,97355.63
2024-02-10T19:52:42.884Z,97354.88
2024-02-10T19:55:10.741Z,97362.44
2024-02-10T19:57:41.642Z,97361.22
2024-02-10T20:00:10.399Z,97364.59
2024-02-10T20:02:39.544Z,97358.56
2024-02-10T20:05:07.881Z,97367.88
2024-02-10T20:07:35.055Z,97365.94
2024-02-10T20:10:03.519Z,97376.94
2024-02-10T20:12:30.290Z,97376.69
2024-02-10T20:14:57.749Z,97382.53
2024-02-10T20:17:32.201Z,97384.75
2024-02-10T20:20:08.072Z,97379.78
2024-02-10T20:22:35.814Z,97388.69
2024-02-10T20:25:05.522Z,97392.75
2024-02-10T20:27:32.615Z,97393.84
2024-02-10T20:30:00.619Z,97395.19
2024-02-10T20:32:27.646Z,97394.34
2024-02-10T20:34:54.935Z,97400.50
2024-02-10T20:37:22.004Z,97395.94
2024-02-10T20:39:50.734Z,97402.66
2024-02-10T20:42:19.000Z,97397.25
2024-02-10T20:44:48.195Z,97400.66
2024-02-10T20:47:17.188Z,97404.38
2024-02-10T20:49:44.458Z,97403.56
2024-02-10T20:52:15.004Z,97405.06
2024-02-10T20:54:44.533Z,97403.13
2024-02-10T20:57:12.832Z,97402.19
2024-02-10T20:59:40.259Z,97396.06
2024-02-10T21:02:08.257Z,97403.44
2024-02-10T21:04:36.445Z,97397.97
2024-02-10T21:07:03.770Z,97400.13
2024-02-10T21:09:30.852Z,97395.63
2024-02-10T21:12:00.047Z,97397.53
2024-02-10T21:14:28.304Z,97392.25
2024-02-10T21:16:58.999Z,97384.91
2024-02-10T21:19:26.368Z,97365.28
2024-02-10T21:21:53.813Z,97374.63
2024-02-10T21:24:22.181Z,97372.44
2024-02-10T21:26:50.324Z,97368.25
2024-02-10T21:29:17.892Z,97366.34
2024-02-10T21:31:44.959Z,97372.72
2024-02-10T21:34:12.593Z,97365.13
2024-02-10T21:36:40.989Z,97371.91
2024-02-10T21:39:16.352Z,97376.78
2024-02-10T21:41:44.206Z,97388.69
2024-02-10T21:44:12.324Z,97392.97
2024-02-10T21:46:39.514Z,97395.47
2024-02-10T21:49:06.721Z,97385.63
2024-02-10T21:51:37.516Z,97395.44
2024-02-10T21:54:06.667Z,97387.75
2024-02-10T21:56:42.826Z,97387.03
2024-02-10T21:59:13.061Z,97375.34
2024-02-10T22:01:40.589Z,97370.91
2024-02-10T22:04:08.376Z,97369.03
2024-02-10T22:06:35.816Z,97352.03
2024-02-10T22:09:05.936Z,97355.44
2024-02-10T22:11:32.815Z,97368.03
2024-02-10T22:14:01.378Z,97373.94
2024-02-10T22:16:28.645Z,97369.16
2024-02-10T22:18:55.724Z,97369.41
2024-02-10T22:21:23.606Z,97359.25
2024-02-10T22:23:51.110Z,97360.59
2024-02-10T22:26:22.514Z,97361.66
2024-02-10T22:28:49.906Z,97357.81
2024-02-10T22:31:17.272Z,97355.81
2024-02-10T22:33:44.362Z,97355.88
2024-02-10T22:36:12.368Z,97358.72
2024-02-10T22:38:41.343Z,97365.91
2024-02-10T22:41:08.205Z,97369.41
2024-02-10T22:43:35.013Z,97375.09
2024-02-10T22:46:02.049Z,97378.09
2024-02-10T22:48:29.027Z,97381.59
2024-02-10T22:50:56.122Z,97392.00
2024-02-10T22:53:23.619Z,97402.03
2024-02-10T22:55:50.428Z,97405.81
2024-02-10T22:58:17.418Z,97411.72
2024-02-10T23:00:54.521Z,97425.03
2024-02-10T23:03:21.330Z,97424.91
2024-02-10T23:05:51.744Z,97429.88
2024-02-10T23:08:21.234Z,97432.34
2024-02-10T23:10:49.141Z,97456.13
2024-02-10T23:13:21.925Z,97472.59
2024-02-10T23:15:49.832Z,97467.53
2024-02-10T23:18:20.350Z,97482.44
2024-02-10T23:20:49.048Z,97488.47
2024-02-10T23:23:19.268Z,97482.56
2024-02-10T23:25:51.164Z,97488.13
2024-02-10T23:28:18.347Z,97491.69
2024-02-10T23:31:00.370Z,97494.16
2024-02-10T23:33:33.077Z,97486.00
2024-02-10T23:36:01.130Z,97490.59
2024-02-10T23:38:28.264Z,97494.16
2024-02-10T23:40:56.489Z,97490.44
2024-02-10T23:43:23.707Z,97490.44
2024-02-10T23:45:50.631Z,97485.63
2024-02-10T23:48:20.871Z,97491.56
2024-02-10T23:50:48.520Z,97491.09
2024-02-10T23:53:15.455Z,97488.25
2024-02-10T23:55:47.524Z,97482.22
2024-02-10T23:58:14.611Z,97490.72
